Pedro Gomes

Скаут - Grêmio
19 Авг 2027
Четверг
Продолжить

Характер

Адаптивность (1) Амбиции (9) Скандальность (5) Верность (9) Стрессоустойчивость (1) Профессионализм (1) Благородство (12) Темперамент (1)

Профиль

Стиль управления Демократичный
Лицензия Национальная A
Решительность 15
Управление людьми 13
Мотивация 13
Дисциплина 10
Удовлетворённость
100%
Усталость
0%
Должность Скаут
Зарплата 116.2K в нед.
Контракт 14.03.2029

Производительность

Поведение Хорошее
Эффективность тренировок
49%
Развитие игроков
45%
Профилактика травм
60%
Тактическая реализация
35%

Недавние события

Участвовал в селекционном совещании 14 дн. назад
Участвовал в селекционном совещании 21 дн. назад
Участвовал в селекционном совещании 28 дн. назад
Оценил игрока 28 дн. назад
Участвовал в селекционном совещании 35 дн. назад
Участвовал в селекционном совещании 42 дн. назад
Участвовал в селекционном совещании 49 дн. назад
Участвовал в селекционном совещании 56 дн. назад

Текущее наблюдение

95
Игрок Клуб Статус Способность Уверенность Наблюдений Последнее наблюдение Последний голос
Gonçalo Oliveira Benfica Активный 117 / 136 40% 1 20.07.2027 -
Leandro Martins Benfica Активный 83 / 87 40% 1 20.07.2027 -
Dango Ouattara Brentford Активный 158 / 163 40% 1 30.05.2027 -
Hector Ramirez Newcastle United Активный 162 / 143 40% 2 29.05.2027 Нужно больше данных
Matt O'Riley Brighton Активный 141 / 141 40% 2 29.05.2027 -
Guille Rosas Gijón Активный 155 / 135 40% 2 29.05.2027 -
Borja Sainz Fiorentina Активный 136 / 150 40% 3 28.05.2027 -
Mats Wieffer Brighton Активный 149 / 135 40% 2 27.05.2027 -
Jacob Ramsey Newcastle United Активный 147 / 156 40% 3 25.05.2027 -
Francisco Conceição Juventus Активный 170 / 173 40% 3 25.05.2027 -
Jan Paul van Hecke Tottenham Активный 174 / 171 40% 1 24.05.2027 -
Curtis Jones Inter Активный 142 / 171 40% 1 24.05.2027 -
Jack McGlynn Stoke City Активный 129 / 144 40% 2 23.05.2027 -
Florentino Luís Ipswich Town Активный 157 / 129 40% 2 23.05.2027 -
Jack Rudoni Coventry City Активный 128 / 135 40% 2 23.05.2027 -
Boubacar Kamara Aston Villa Активный 165 / 148 40% 1 23.05.2027 -
Kiernan Dewsbury-Hall Everton Активный 158 / 165 40% 1 21.05.2027 -
Giacomo Raspadori Atalanta Активный 143 / 158 40% 3 20.05.2027 -
Callum Hudson-Odoi Nottingham Forest Активный 162 / 153 40% 2 20.05.2027 -
Ethan Galbraith Swansea City Активный 148 / 146 40% 1 19.05.2027 -
Jake O'Brien Everton Активный 163 / 132 40% 1 19.05.2027 -
Othmane Maamma Watford Активный 135 / 125 40% 1 18.05.2027 -
Alexis Saelemaekers AC Milan Активный 150 / 142 40% 1 17.05.2027 -
Morgan Whittaker Middlesbrough Активный 134 / 144 40% 4 14.05.2027 -
Nicolas Jackson Aston Villa Активный 140 / 145 40% 3 14.05.2027 -
Georginio Rutter Brighton Активный 155 / 148 40% 1 14.05.2027 -
Welington Southampton Активный 138 / 135 40% 3 12.05.2027 -
Yehor Yarmoliuk Brentford Активный 142 / 146 40% 1 11.05.2027 -
Carlos Vicente Birmingham Активный 149 / 137 40% 2 10.05.2027 Нужно больше данных
Scott Twine Bristol City Активный 127 / 132 40% 2 07.05.2027 -
Adam Wharton Crystal Palace Активный 145 / 143 40% 1 01.05.2027 -
Xavi Simons Tottenham Активный 166 / 168 40% 1 30.04.2027 -
Derensili Sanches Fernandes Huddersfield Town Активный 116 / 140 40% 2 29.04.2027 -
Carlos Alcaraz Everton Активный 138 / 159 40% 1 28.04.2027 -
Mario Dorgeles Braga Активный 136 / 130 40% 3 25.04.2027 -
Tom Fellows Southampton Активный 122 / 138 40% 4 25.04.2027 -
Rodrigo Zalazar Sporting CP Активный 154 / 163 40% 1 24.04.2027 -
William Gomes Porto Активный 160 / 157 40% 2 22.04.2027 -
Bright Arrey-Mbi Braga Активный 144 / 134 40% 2 21.04.2027 -
Nico González Newcastle United Активный 161 / 159 40% 2 21.04.2027 Нужно больше данных
Amadou Onana Aston Villa Активный 168 / 143 40% 1 18.04.2027 -
Fredrik Aursnes Benfica Активный 154 / 138 40% 1 17.04.2027 -
Léo Scienza Southampton Активный 138 / 132 40% 1 17.04.2027 -
Finn Azaz Southampton Активный 129 / 123 40% 4 15.04.2027 -
Iván Fresneda Sporting CP Активный 143 / 137 40% 5 13.04.2027 -
Bosun Lawal Stoke City Активный 125 / 121 40% 1 13.04.2027 -
Lewis Ferguson Bologna Активный 152 / 129 40% 1 12.04.2027 -
Pau Víctor AVS Активный 136 / 134 40% 4 11.04.2027 -
Milan van Ewijk Mansfield Town Активный 144 / 123 40% 1 09.04.2027 -
Noah Sadiki Sunderland Активный 135 / 155 40% 1 09.04.2027 -
Isaiah Jones Luton Town Активный 113 / 137 40% 1 05.04.2027 -
Luke McNally Bristol City Активный 133 / 117 40% 1 04.04.2027 -
Jesús Orozco Chiquete Cruz Azul Активный 137 / 133 40% 3 01.04.2027 -
Soungoutou Magassa West Ham United Активный 143 / 134 40% 1 01.04.2027 -
Sergi Altimira Sporting CP Активный 146 / 136 40% 1 31.03.2027 -
Víctor Gómez Braga Активный 143 / 136 40% 3 29.03.2027 -
Valery Académico de Viseu Активный 120 / 139 40% 1 29.03.2027 -
Zeno Debast Sporting CP Активный 153 / 152 40% 2 28.03.2027 -
Paulo Moreira Farense Активный 134 / 119 40% 2 28.03.2027 -
Erick Sánchez OGC Nice Активный 157 / 155 40% 3 27.03.2027 -
Gabri Martínez Braga Активный 136 / 119 40% 2 26.03.2027 -
Imrân Louza Watford Активный 133 / 140 40% 1 26.03.2027 -
Jacques Ekomié Wrexham Активный 116 / 136 40% 1 26.03.2027 -
Ozziel Herrera Tigres Активный 122 / 136 40% 4 24.03.2027 -
Alberto Costa Porto Активный 160 / 153 40% 6 23.03.2027 -
Tyrell Malacia Monaco Активный 133 / 140 40% 1 21.03.2027 -
Nicolás Fernández Mercau Shakhtar Активный 133 / 149 40% 3 20.03.2027 -
Eduardo Quaresma Sporting CP Активный 142 / 147 40% 1 19.03.2027 -
Alan Varela Porto Активный 142 / 155 40% 3 17.03.2027 -
Félix Lemaréchal Club Brugge Активный 147 / 150 40% 2 17.03.2027 -
Rodrigo Pinheiro Famalicao Активный 113 / 126 40% 2 16.03.2027 -
Francisco Moura Lusitânia Lourosa Активный 130 / 154 40% 3 14.03.2027 -
Marcelo Allende Mamelodi Sundowns Активный 147 / 140 40% 1 12.03.2027 -
Kwadwo Baah Watford Активный 112 / 136 40% 1 12.03.2027 -
Naïs Djouahra Arouca Активный 127 / 113 40% 2 08.03.2027 -
Santi García Gil Vicente Активный 136 / 116 40% 2 08.03.2027 -
Max Bird Birmingham Активный 118 / 124 40% 1 08.03.2027 -
Gonçalo Inácio Sporting CP Активный 132 / 145 40% 2 03.03.2027 -
Sikou Niakaté Braga Активный 122 / 143 40% 1 03.03.2027 -
Gustaf Lagerbielke Braga Активный 138 / 124 40% 1 02.03.2027 -
Brian Rodríguez Club America Активный 115 / 131 40% 1 28.02.2027 -
Luís Guilherme Sporting CP Активный 121 / 118 40% 2 27.02.2027 -
Figueiredo Alverca Активный 118 / 141 40% 1 23.02.2027 -
Rafik Guitane Estoril Praia Активный 145 / 148 40% 1 21.02.2027 -
Ousmane Diomande Nottingham Forest Активный 141 / 138 40% 1 21.02.2027 -
João Simões Sporting CP Активный 127 / 131 40% 3 20.02.2027 -
Bamba Dieng Crvena Zvezda Активный 123 / 144 40% 1 18.02.2027 -
Ilay Camara Anderlecht Активный 140 / 145 40% 1 14.02.2027 -
Mathias De Amorim Famalicao Активный 130 / 129 40% 1 10.02.2027 -
Dara O'Shea Ipswich Town Активный 141 / 125 40% 1 07.02.2027 -
Diego Lainez Tigres Активный 119 / 134 40% 1 03.02.2027 -
Heorhii Sudakov Benfica Активный 148 / 156 40% 1 03.02.2027 -
Dinis Pinto Moreirense Активный 119 / 120 40% 1 30.11.2026 -
Ricardo Horta Braga Активный 148 / 136 40% 1 03.08.2026 -
Dodi Lukébakio Benfica Активный 128 / 144 40% 1 03.08.2026 -